createdAt,value
2023-02-01T00:02:59.833Z,7.93
2023-02-01T00:08:01.880Z,7.63
2023-02-01T00:13:03.924Z,7.65
2023-02-01T00:18:06.112Z,9.25
2023-02-01T00:23:09.688Z,9.35
2023-02-01T00:28:13.992Z,9.48
2023-02-01T00:33:16.156Z,10.13
2023-02-01T00:38:19.590Z,9.90
2023-02-01T00:43:23.939Z,9.10
2023-02-01T00:48:26.727Z,8.57
2023-02-01T00:53:29.283Z,8.23
2023-02-01T00:58:31.467Z,8.07
2023-02-01T01:03:35.372Z,7.75
2023-02-01T01:08:38.624Z,8.55
2023-02-01T01:13:41.363Z,7.07
2023-02-01T01:18:44.181Z,7.38
2023-02-01T01:23:47.318Z,7.28
2023-02-01T01:28:49.466Z,7.82
2023-02-01T01:33:53.483Z,7.88
2023-02-01T01:38:55.827Z,7.50
2023-02-01T01:44:04.272Z,7.75
2023-02-01T01:49:13.899Z,7.85
2023-02-01T01:54:33.374Z,7.90
2023-02-01T01:59:39.950Z,7.75
2023-02-01T02:04:42.071Z,6.10
2023-02-01T02:09:54.612Z,7.30
2023-02-01T02:15:02.070Z,6.88
2023-02-01T02:20:33.044Z,7.25
2023-02-01T02:26:10.563Z,7.25
2023-02-01T02:31:29.194Z,6.45
2023-02-01T02:37:03.792Z,6.90
2023-02-01T02:42:24.435Z,7.07
2023-02-01T02:47:35.624Z,6.68
2023-02-01T02:53:02.799Z,6.93
2023-02-01T02:58:26.277Z,7.28
2023-02-01T03:03:47.030Z,6.93
2023-02-01T03:08:49.869Z,7.20
2023-02-01T03:14:01.830Z,7.70
2023-02-01T03:19:29.074Z,7.55
2023-02-01T03:24:42.913Z,8.32
2023-02-01T03:30:11.024Z,6.97
2023-02-01T03:35:14.281Z,7.65
2023-02-01T03:40:20.462Z,7.25
2023-02-01T03:45:32.478Z,7.80
2023-02-01T03:50:37.916Z,7.18
2023-02-01T03:55:43.132Z,7.85
2023-02-01T04:00:50.973Z,7.35
2023-02-01T04:05:53.939Z,8.05
2023-02-01T04:10:59.399Z,8.18
2023-02-01T04:16:01.463Z,8.43
2023-02-01T04:21:04.187Z,8.23
2023-02-01T04:26:06.556Z,8.10
2023-02-01T04:31:08.778Z,8.80
2023-02-01T04:36:11.211Z,7.63
2023-02-01T04:41:13.239Z,7.68
2023-02-01T04:46:15.689Z,8.80
2023-02-01T04:51:19.137Z,9.27
2023-02-01T04:56:22.272Z,8.80
2023-02-01T05:01:25.686Z,8.43
2023-02-01T05:06:27.857Z,8.07
2023-02-01T05:11:48.376Z,7.72
2023-02-01T05:16:50.422Z,8.57
2023-02-01T05:21:53.583Z,9.07
2023-02-01T05:26:55.744Z,8.90
2023-02-01T05:32:00.943Z,9.25
2023-02-01T05:37:07.365Z,8.77
2023-02-01T05:42:09.593Z,10.27
2023-02-01T05:47:11.639Z,10.18
2023-02-01T05:52:13.731Z,10.02
2023-02-01T05:57:16.322Z,9.88
2023-02-01T06:02:18.402Z,10.15
2023-02-01T06:07:20.607Z,10.93
2023-02-01T06:12:22.622Z,10.43
2023-02-01T06:17:24.673Z,10.60
2023-02-01T06:22:26.809Z,10.00
2023-02-01T06:27:30.338Z,9.98
2023-02-01T06:32:32.489Z,9.98
2023-02-01T06:37:35.249Z,12.38
2023-02-01T06:42:37.341Z,10.90
2023-02-01T06:47:39.411Z,11.13
2023-02-01T06:52:41.484Z,10.93
2023-02-01T06:57:43.533Z,10.90
2023-02-01T07:02:45.577Z,12.05
2023-02-01T07:07:47.881Z,10.55
2023-02-01T07:12:50.064Z,14.60
2023-02-01T07:17:56.210Z,12.13
2023-02-01T07:22:58.694Z,14.68
2023-02-01T07:28:00.847Z,14.60
2023-02-01T07:33:03.142Z,15.48
2023-02-01T07:38:05.172Z,14.75
2023-02-01T07:43:08.817Z,13.63
2023-02-01T07:48:10.857Z,13.07
2023-02-01T07:53:13.073Z,13.50
2023-02-01T07:58:15.115Z,12.07
2023-02-01T08:03:17.500Z,12.75
2023-02-01T08:08:19.592Z,11.55
2023-02-01T08:13:21.748Z,12.63
2023-02-01T08:18:23.816Z,12.55
2023-02-01T08:23:26.150Z,12.82
2023-02-01T08:28:28.276Z,14.23
2023-02-01T08:33:30.437Z,12.77
2023-02-01T08:38:32.683Z,11.43
2023-02-01T08:43:35.238Z,13.63
2023-02-01T08:48:38.054Z,13.65
2023-02-01T08:53:43.941Z,13.45
2023-02-01T08:58:46.413Z,13.82
2023-02-01T09:03:48.549Z,14.82
2023-02-01T09:08:50.668Z,15.27
2023-02-01T09:13:52.808Z,12.98
2023-02-01T09:19:14.552Z,15.00
2023-02-01T09:24:17.051Z,15.00
2023-02-01T09:29:19.125Z,16.70
2023-02-01T09:34:21.237Z,16.35
2023-02-01T09:39:23.739Z,16.77
2023-02-01T09:44:43.752Z,15.45
2023-02-01T09:50:23.919Z,15.70
2023-02-01T09:55:39.562Z,14.60
2023-02-01T10:00:46.293Z,13.45
2023-02-01T10:06:10.245Z,14.02
2023-02-01T10:11:27.066Z,12.73
2023-02-01T10:16:48.371Z,10.80
2023-02-01T10:22:03.894Z,13.70
2023-02-01T10:27:11.611Z,13.93
2023-02-01T10:32:22.328Z,13.02
2023-02-01T10:37:34.914Z,13.77
2023-02-01T10:42:37.137Z,14.43
2023-02-01T10:47:39.177Z,14.73
2023-02-01T10:52:47.426Z,15.25
2023-02-01T10:57:58.181Z,14.90
2023-02-01T11:03:00.339Z,14.45
2023-02-01T11:08:03.357Z,13.65
2023-02-01T11:13:06.400Z,17.45
2023-02-01T11:18:27.974Z,15.38
2023-02-01T11:23:32.345Z,18.48
2023-02-01T11:28:38.821Z,16.17
2023-02-01T11:33:55.058Z,18.40
2023-02-01T11:39:15.648Z,17.42
2023-02-01T11:44:39.615Z,17.10
2023-02-01T11:49:41.681Z,17.83
2023-02-01T11:54:49.681Z,16.27
2023-02-01T12:00:09.617Z,16.60
2023-02-01T12:05:37.012Z,14.50
2023-02-01T12:10:57.329Z,14.32
2023-02-01T12:16:32.002Z,15.82
2023-02-01T12:21:45.822Z,15.93
2023-02-01T12:27:07.007Z,14.65
2023-02-01T12:32:26.625Z,15.83
2023-02-01T12:37:42.271Z,14.48
2023-02-01T12:43:00.416Z,16.42
2023-02-01T12:48:27.065Z,15.27
2023-02-01T12:53:46.958Z,15.75
2023-02-01T12:58:53.696Z,12.80
2023-02-01T13:04:16.305Z,14.02
2023-02-01T13:09:40.473Z,13.40
2023-02-01T13:14:59.641Z,10.40
2023-02-01T13:20:16.654Z,12.60
2023-02-01T13:25:48.131Z,11.60
2023-02-01T13:31:05.400Z,8.80
2023-02-01T13:36:51.795Z,7.07
2023-02-01T13:42:18.307Z,10.20
2023-02-01T13:47:26.461Z,8.55
2023-02-01T13:52:36.498Z,9.68
2023-02-01T13:57:41.129Z,7.22
2023-02-01T14:02:43.099Z,7.03
2023-02-01T14:08:10.711Z,8.55
2023-02-01T14:13:30.865Z,7.45
2023-02-01T14:19:00.515Z,7.85
2023-02-01T14:24:15.677Z,7.93
2023-02-01T14:29:21.366Z,8.70
2023-02-01T14:34:36.973Z,8.20
2023-02-01T14:39:55.680Z,8.13
2023-02-01T14:45:24.165Z,9.05
2023-02-01T14:50:47.483Z,10.48
2023-02-01T14:56:11.636Z,10.10
2023-02-01T15:01:30.407Z,10.38
2023-02-01T15:06:47.585Z,12.07
2023-02-01T15:12:03.569Z,9.82
2023-02-01T15:17:23.153Z,10.18
2023-02-01T15:22:26.576Z,10.30
2023-02-01T15:27:30.458Z,10.30
2023-02-01T15:32:40.249Z,8.80
2023-02-01T15:37:43.303Z,7.85
2023-02-01T15:42:55.338Z,10.15
2023-02-01T15:47:59.254Z,10.13
2023-02-01T15:53:01.411Z,11.07
2023-02-01T15:58:08.624Z,11.77
2023-02-01T16:03:27.368Z,11.32
2023-02-01T16:08:33.017Z,11.35
2023-02-01T16:13:35.706Z,12.02
2023-02-01T16:18:37.770Z,11.32
2023-02-01T16:23:39.940Z,10.70
2023-02-01T16:28:42.084Z,12.52
2023-02-01T16:33:44.172Z,12.13
2023-02-01T16:38:50.543Z,11.43
2023-02-01T16:43:55.302Z,11.98
2023-02-01T16:48:59.882Z,11.63
2023-02-01T16:54:02.555Z,11.00
2023-02-01T16:59:04.632Z,12.27
2023-02-01T17:04:07.005Z,12.63
2023-02-01T17:09:11.133Z,12.63
2023-02-01T17:14:22.599Z,13.30
2023-02-01T17:19:25.403Z,12.60
2023-02-01T17:24:42.371Z,10.35
2023-02-01T17:29:50.015Z,11.93
2023-02-01T17:34:52.255Z,13.07
2023-02-01T17:39:57.647Z,9.88
2023-02-01T17:45:12.047Z,12.40
2023-02-01T17:50:14.432Z,12.30
2023-02-01T17:55:19.872Z,12.75
2023-02-01T18:00:22.332Z,12.27
2023-02-01T18:05:29.771Z,13.38
2023-02-01T18:10:31.847Z,12.20
2023-02-01T18:15:34.026Z,11.32
2023-02-01T18:20:36.516Z,9.32
2023-02-01T18:25:38.827Z,10.02
2023-02-01T18:30:41.979Z,11.07
2023-02-01T18:35:44.624Z,10.18
2023-02-01T18:40:51.561Z,10.85
2023-02-01T18:45:55.193Z,9.13
2023-02-01T18:50:57.929Z,9.15
2023-02-01T18:56:00.643Z,9.10
2023-02-01T19:01:09.474Z,9.00
2023-02-01T19:06:16.608Z,9.25
2023-02-01T19:11:18.663Z,8.52
2023-02-01T19:16:20.809Z,8.60
2023-02-01T19:21:22.857Z,9.10
2023-02-01T19:26:24.944Z,8.25
2023-02-01T19:31:27.211Z,9.05
2023-02-01T19:36:29.396Z,8.10
2023-02-01T19:41:31.505Z,8.23
2023-02-01T19:46:33.664Z,15.20
2023-02-01T19:51:35.704Z,10.38
2023-02-01T19:56:38.325Z,12.02
2023-02-01T20:01:40.089Z,10.15
2023-02-01T20:06:50.169Z,12.18
2023-02-01T20:11:54.280Z,10.38
2023-02-01T20:16:56.790Z,11.73
2023-02-01T20:21:59.524Z,15.05
2023-02-01T20:27:02.485Z,13.70
2023-02-01T20:32:05.272Z,14.13
2023-02-01T20:37:07.406Z,14.90
2023-02-01T20:42:09.434Z,15.20
2023-02-01T20:47:11.489Z,14.20
2023-02-01T20:52:14.282Z,14.40
2023-02-01T20:57:16.326Z,13.65
2023-02-01T21:02:18.520Z,15.10
2023-02-01T21:07:20.937Z,16.52
2023-02-01T21:12:23.111Z,15.45
2023-02-01T21:17:28.734Z,16.05
2023-02-01T21:22:31.165Z,15.98
2023-02-01T21:27:33.283Z,15.75
2023-02-01T21:32:35.394Z,15.73
2023-02-01T21:37:37.506Z,15.25
2023-02-01T21:42:40.593Z,15.55
2023-02-01T21:47:43.052Z,16.25
2023-02-01T21:52:45.313Z,16.05
2023-02-01T21:57:47.456Z,15.63
2023-02-01T22:02:49.565Z,16.13
2023-02-01T22:07:52.400Z,15.40
2023-02-01T22:12:54.454Z,16.08
2023-02-01T22:17:56.555Z,15.77
2023-02-01T22:22:58.605Z,15.57
2023-02-01T22:28:30.380Z,15.50
2023-02-01T22:38:25.313Z,15.32
2023-02-01T22:43:28.424Z,15.20
2023-02-01T22:48:31.619Z,16.17
2023-02-01T22:53:34.243Z,15.82
2023-02-01T22:58:36.370Z,14.55
2023-02-01T23:03:39.241Z,15.65
2023-02-01T23:08:41.348Z,16.15
2023-02-01T23:13:44.401Z,15.43
2023-02-01T23:18:47.661Z,16.02
2023-02-01T23:23:52.014Z,16.00
2023-02-01T23:28:55.377Z,16.17
2023-02-01T23:33:59.582Z,14.77
2023-02-01T23:39:02.322Z,11.95
2023-02-01T23:44:04.424Z,9.93
2023-02-01T23:49:08.252Z,16.70
2023-02-01T23:54:11.778Z,15.35
2023-02-01T23:59:16.788Z,14.30
